sensor_id;sensor_type;location;lat;lon;timestamp;P1;durP1;ratioP1;P2;durP2;ratioP2
47413;SDS011;33163;0.000;0.000;2023-07-30T00:01:56;9.88;;;2.80;;
47413;SDS011;33163;0.000;0.000;2023-07-30T00:04:22;9.10;;;2.88;;
47413;SDS011;33163;0.000;0.000;2023-07-30T00:06:49;8.27;;;2.60;;
47413;SDS011;33163;0.000;0.000;2023-07-30T00:09:16;9.68;;;2.67;;
47413;SDS011;33163;0.000;0.000;2023-07-30T00:11:44;13.73;;;3.00;;
47413;SDS011;33163;0.000;0.000;2023-07-30T00:14:11;15.20;;;3.53;;
47413;SDS011;33163;0.000;0.000;2023-07-30T00:16:37;11.55;;;2.95;;
47413;SDS011;33163;0.000;0.000;2023-07-30T00:19:04;10.05;;;3.15;;
47413;SDS011;33163;0.000;0.000;2023-07-30T00:21:31;13.30;;;3.45;;
47413;SDS011;33163;0.000;0.000;2023-07-30T00:23:58;9.75;;;2.20;;
47413;SDS011;33163;0.000;0.000;2023-07-30T00:26:24;10.32;;;2.70;;
47413;SDS011;33163;0.000;0.000;2023-07-30T00:28:55;17.10;;;3.90;;
47413;SDS011;33163;0.000;0.000;2023-07-30T00:31:21;12.90;;;2.90;;
47413;SDS011;33163;0.000;0.000;2023-07-30T00:33:48;9.00;;;2.33;;
47413;SDS011;33163;0.000;0.000;2023-07-30T00:36:15;10.48;;;3.03;;
47413;SDS011;33163;0.000;0.000;2023-07-30T00:38:41;10.68;;;2.80;;
47413;SDS011;33163;0.000;0.000;2023-07-30T00:41:08;11.48;;;3.42;;
47413;SDS011;33163;0.000;0.000;2023-07-30T00:43:35;8.77;;;2.75;;
47413;SDS011;33163;0.000;0.000;2023-07-30T00:46:03;10.68;;;2.38;;
47413;SDS011;33163;0.000;0.000;2023-07-30T00:48:30;10.45;;;3.58;;
47413;SDS011;33163;0.000;0.000;2023-07-30T00:50:57;12.15;;;3.28;;
47413;SDS011;33163;0.000;0.000;2023-07-30T00:53:25;11.73;;;2.65;;
47413;SDS011;33163;0.000;0.000;2023-07-30T00:55:53;8.77;;;2.00;;
47413;SDS011;33163;0.000;0.000;2023-07-30T00:58:20;12.52;;;2.75;;
47413;SDS011;33163;0.000;0.000;2023-07-30T01:00:47;13.73;;;2.92;;
47413;SDS011;33163;0.000;0.000;2023-07-30T01:03:15;17.17;;;3.42;;
47413;SDS011;33163;0.000;0.000;2023-07-30T01:05:42;8.15;;;2.15;;
47413;SDS011;33163;0.000;0.000;2023-07-30T01:08:10;11.38;;;2.78;;
47413;SDS011;33163;0.000;0.000;2023-07-30T01:10:37;10.15;;;3.03;;
47413;SDS011;33163;0.000;0.000;2023-07-30T01:13:06;10.75;;;2.50;;
47413;SDS011;33163;0.000;0.000;2023-07-30T01:15:36;12.70;;;2.63;;
47413;SDS011;33163;0.000;0.000;2023-07-30T01:18:03;9.38;;;2.50;;
47413;SDS011;33163;0.000;0.000;2023-07-30T01:20:31;13.15;;;2.65;;
47413;SDS011;33163;0.000;0.000;2023-07-30T01:23:00;9.30;;;2.53;;
47413;SDS011;33163;0.000;0.000;2023-07-30T01:25:27;10.40;;;3.03;;
47413;SDS011;33163;0.000;0.000;2023-07-30T01:27:58;11.93;;;2.75;;
47413;SDS011;33163;0.000;0.000;2023-07-30T01:30:27;13.38;;;2.80;;
47413;SDS011;33163;0.000;0.000;2023-07-30T01:32:56;14.02;;;2.83;;
47413;SDS011;33163;0.000;0.000;2023-07-30T01:35:25;9.43;;;2.53;;
47413;SDS011;33163;0.000;0.000;2023-07-30T01:37:53;17.17;;;3.05;;
47413;SDS011;33163;0.000;0.000;2023-07-30T01:40:22;9.85;;;2.78;;
47413;SDS011;33163;0.000;0.000;2023-07-30T01:42:49;23.55;;;3.10;;
47413;SDS011;33163;0.000;0.000;2023-07-30T01:45:16;15.07;;;2.78;;
47413;SDS011;33163;0.000;0.000;2023-07-30T01:47:43;12.45;;;3.08;;
47413;SDS011;33163;0.000;0.000;2023-07-30T01:50:10;9.52;;;2.75;;
47413;SDS011;33163;0.000;0.000;2023-07-30T01:52:37;16.33;;;2.33;;
47413;SDS011;33163;0.000;0.000;2023-07-30T01:55:04;10.38;;;2.53;;
47413;SDS011;33163;0.000;0.000;2023-07-30T01:57:32;11.40;;;2.75;;
47413;SDS011;33163;0.000;0.000;2023-07-30T01:59:59;9.50;;;3.05;;
47413;SDS011;33163;0.000;0.000;2023-07-30T02:02:26;12.07;;;2.97;;
47413;SDS011;33163;0.000;0.000;2023-07-30T02:04:52;12.65;;;3.75;;
47413;SDS011;33163;0.000;0.000;2023-07-30T02:07:19;9.68;;;2.47;;
47413;SDS011;33163;0.000;0.000;2023-07-30T02:09:46;10.52;;;2.40;;
47413;SDS011;33163;0.000;0.000;2023-07-30T02:12:13;12.48;;;3.22;;
47413;SDS011;33163;0.000;0.000;2023-07-30T02:14:41;13.38;;;2.80;;
47413;SDS011;33163;0.000;0.000;2023-07-30T02:17:07;9.77;;;2.85;;
47413;SDS011;33163;0.000;0.000;2023-07-30T02:19:34;20.02;;;4.10;;
47413;SDS011;33163;0.000;0.000;2023-07-30T02:22:01;12.70;;;3.17;;
47413;SDS011;33163;0.000;0.000;2023-07-30T02:24:28;11.73;;;2.80;;
47413;SDS011;33163;0.000;0.000;2023-07-30T02:26:54;10.25;;;2.35;;
47413;SDS011;33163;0.000;0.000;2023-07-30T02:29:21;10.82;;;2.72;;
47413;SDS011;33163;0.000;0.000;2023-07-30T02:31:49;9.73;;;2.85;;
47413;SDS011;33163;0.000;0.000;2023-07-30T02:34:16;14.68;;;3.17;;
47413;SDS011;33163;0.000;0.000;2023-07-30T02:36:43;13.85;;;3.33;;
47413;SDS011;33163;0.000;0.000;2023-07-30T02:39:09;13.10;;;2.97;;
47413;SDS011;33163;0.000;0.000;2023-07-30T02:41:36;11.68;;;2.63;;
47413;SDS011;33163;0.000;0.000;2023-07-30T02:44:03;12.65;;;2.85;;
47413;SDS011;33163;0.000;0.000;2023-07-30T02:46:30;10.70;;;2.83;;
47413;SDS011;33163;0.000;0.000;2023-07-30T02:48:58;10.23;;;2.65;;
47413;SDS011;33163;0.000;0.000;2023-07-30T02:51:25;13.35;;;3.65;;
47413;SDS011;33163;0.000;0.000;2023-07-30T02:53:51;10.00;;;2.47;;
47413;SDS011;33163;0.000;0.000;2023-07-30T02:56:19;17.17;;;3.65;;
47413;SDS011;33163;0.000;0.000;2023-07-30T02:58:46;10.95;;;2.40;;
47413;SDS011;33163;0.000;0.000;2023-07-30T03:01:12;11.15;;;2.70;;
47413;SDS011;33163;0.000;0.000;2023-07-30T03:03:39;11.15;;;2.33;;
47413;SDS011;33163;0.000;0.000;2023-07-30T03:06:07;13.13;;;3.13;;
47413;SDS011;33163;0.000;0.000;2023-07-30T03:08:34;9.90;;;2.67;;
47413;SDS011;33163;0.000;0.000;2023-07-30T03:11:02;10.55;;;2.85;;
47413;SDS011;33163;0.000;0.000;2023-07-30T03:13:28;11.52;;;2.92;;
47413;SDS011;33163;0.000;0.000;2023-07-30T03:15:55;14.07;;;3.42;;
47413;SDS011;33163;0.000;0.000;2023-07-30T03:18:22;14.93;;;2.75;;
47413;SDS011;33163;0.000;0.000;2023-07-30T03:20:49;14.70;;;2.92;;
47413;SDS011;33163;0.000;0.000;2023-07-30T03:23:17;13.45;;;2.67;;
47413;SDS011;33163;0.000;0.000;2023-07-30T03:25:43;15.75;;;3.08;;
47413;SDS011;33163;0.000;0.000;2023-07-30T03:28:10;9.00;;;2.75;;
47413;SDS011;33163;0.000;0.000;2023-07-30T03:30:38;8.60;;;1.98;;
47413;SDS011;33163;0.000;0.000;2023-07-30T03:33:05;10.20;;;2.55;;
47413;SDS011;33163;0.000;0.000;2023-07-30T03:35:32;11.73;;;2.92;;
47413;SDS011;33163;0.000;0.000;2023-07-30T03:37:58;10.13;;;2.92;;
47413;SDS011;33163;0.000;0.000;2023-07-30T03:40:26;9.95;;;2.65;;
47413;SDS011;33163;0.000;0.000;2023-07-30T03:42:54;10.30;;;2.35;;
47413;SDS011;33163;0.000;0.000;2023-07-30T03:45:21;11.32;;;3.15;;
47413;SDS011;33163;0.000;0.000;2023-07-30T03:47:48;11.07;;;2.58;;
47413;SDS011;33163;0.000;0.000;2023-07-30T03:50:15;7.22;;;2.20;;
47413;SDS011;33163;0.000;0.000;2023-07-30T03:52:41;10.32;;;2.40;;
47413;SDS011;33163;0.000;0.000;2023-07-30T03:55:08;11.13;;;2.78;;
47413;SDS011;33163;0.000;0.000;2023-07-30T03:57:36;8.15;;;2.55;;
47413;SDS011;33163;0.000;0.000;2023-07-30T04:00:03;7.70;;;2.13;;
47413;SDS011;33163;0.000;0.000;2023-07-30T04:02:32;10.70;;;2.97;;
47413;SDS011;33163;0.000;0.000;2023-07-30T04:04:58;11.23;;;2.30;;
47413;SDS011;33163;0.000;0.000;2023-07-30T04:07:25;10.57;;;3.30;;
47413;SDS011;33163;0.000;0.000;2023-07-30T04:09:52;6.97;;;2.13;;
47413;SDS011;33163;0.000;0.000;2023-07-30T04:12:19;11.70;;;3.47;;
47413;SDS011;33163;0.000;0.000;2023-07-30T04:14:47;8.70;;;2.70;;
47413;SDS011;33163;0.000;0.000;2023-07-30T04:17:14;10.18;;;2.45;;
47413;SDS011;33163;0.000;0.000;2023-07-30T04:19:41;7.03;;;1.50;;
47413;SDS011;33163;0.000;0.000;2023-07-30T04:22:08;8.45;;;1.90;;
47413;SDS011;33163;0.000;0.000;2023-07-30T04:24:34;9.60;;;2.15;;
47413;SDS011;33163;0.000;0.000;2023-07-30T04:27:01;7.57;;;1.75;;
47413;SDS011;33163;0.000;0.000;2023-07-30T04:29:28;7.97;;;1.95;;
47413;SDS011;33163;0.000;0.000;2023-07-30T04:31:56;7.68;;;2.15;;
47413;SDS011;33163;0.000;0.000;2023-07-30T04:34:23;9.90;;;2.42;;
47413;SDS011;33163;0.000;0.000;2023-07-30T04:36:50;10.45;;;2.00;;
47413;SDS011;33163;0.000;0.000;2023-07-30T04:39:16;8.55;;;2.05;;
47413;SDS011;33163;0.000;0.000;2023-07-30T04:41:43;8.88;;;2.42;;
47413;SDS011;33163;0.000;0.000;2023-07-30T04:44:10;7.05;;;1.98;;
47413;SDS011;33163;0.000;0.000;2023-07-30T04:46:36;4.32;;;1.77;;
47413;SDS011;33163;0.000;0.000;2023-07-30T04:49:04;6.53;;;1.92;;
47413;SDS011;33163;0.000;0.000;2023-07-30T04:51:31;6.28;;;1.90;;
47413;SDS011;33163;0.000;0.000;2023-07-30T04:53:58;5.95;;;1.90;;
47413;SDS011;33163;0.000;0.000;2023-07-30T04:56:25;9.25;;;2.30;;
47413;SDS011;33163;0.000;0.000;2023-07-30T04:58:52;4.70;;;1.63;;
47413;SDS011;33163;0.000;0.000;2023-07-30T05:01:18;5.85;;;2.08;;
47413;SDS011;33163;0.000;0.000;2023-07-30T05:03:45;7.40;;;2.33;;
47413;SDS011;33163;0.000;0.000;2023-07-30T05:06:13;6.25;;;2.28;;
47413;SDS011;33163;0.000;0.000;2023-07-30T05:08:40;9.43;;;2.63;;
47413;SDS011;33163;0.000;0.000;2023-07-30T05:11:07;5.95;;;1.52;;
47413;SDS011;33163;0.000;0.000;2023-07-30T05:13:33;4.85;;;1.73;;
47413;SDS011;33163;0.000;0.000;2023-07-30T05:16:00;7.18;;;1.58;;
47413;SDS011;33163;0.000;0.000;2023-07-30T05:18:27;7.10;;;2.38;;
47413;SDS011;33163;0.000;0.000;2023-07-30T05:20:54;5.53;;;1.55;;
47413;SDS011;33163;0.000;0.000;2023-07-30T05:23:22;5.95;;;1.90;;
47413;SDS011;33163;0.000;0.000;2023-07-30T05:25:49;5.15;;;1.45;;
47413;SDS011;33163;0.000;0.000;2023-07-30T05:28:16;7.53;;;1.50;;
47413;SDS011;33163;0.000;0.000;2023-07-30T05:30:43;6.25;;;1.77;;
47413;SDS011;33163;0.000;0.000;2023-07-30T05:33:10;8.32;;;1.90;;
47413;SDS011;33163;0.000;0.000;2023-07-30T05:35:36;5.45;;;1.67;;
47413;SDS011;33163;0.000;0.000;2023-07-30T05:38:03;6.47;;;1.88;;
47413;SDS011;33163;0.000;0.000;2023-07-30T05:40:31;6.95;;;1.77;;
47413;SDS011;33163;0.000;0.000;2023-07-30T05:42:58;9.15;;;2.15;;
47413;SDS011;33163;0.000;0.000;2023-07-30T05:45:25;8.85;;;2.17;;
47413;SDS011;33163;0.000;0.000;2023-07-30T05:47:52;7.85;;;1.73;;
47413;SDS011;33163;0.000;0.000;2023-07-30T05:50:19;7.82;;;1.75;;
47413;SDS011;33163;0.000;0.000;2023-07-30T05:52:46;5.28;;;2.03;;
47413;SDS011;33163;0.000;0.000;2023-07-30T05:55:12;9.13;;;2.00;;
47413;SDS011;33163;0.000;0.000;2023-07-30T05:57:40;8.48;;;2.03;;
47413;SDS011;33163;0.000;0.000;2023-07-30T06:00:08;4.40;;;1.80;;
47413;SDS011;33163;0.000;0.000;2023-07-30T06:02:35;6.13;;;1.80;;
47413;SDS011;33163;0.000;0.000;2023-07-30T06:05:02;9.43;;;2.15;;
47413;SDS011;33163;0.000;0.000;2023-07-30T06:07:29;12.88;;;2.63;;
47413;SDS011;33163;0.000;0.000;2023-07-30T06:09:55;14.23;;;2.70;;
47413;SDS011;33163;0.000;0.000;2023-07-30T06:12:22;7.22;;;1.73;;
47413;SDS011;33163;0.000;0.000;2023-07-30T06:14:50;5.72;;;1.90;;
47413;SDS011;33163;0.000;0.000;2023-07-30T06:17:30;10.17;;;2.50;;
47413;SDS011;33163;0.000;0.000;2023-07-30T06:19:57;10.82;;;2.30;;
47413;SDS011;33163;0.000;0.000;2023-07-30T06:22:23;7.55;;;1.98;;
47413;SDS011;33163;0.000;0.000;2023-07-30T06:24:50;8.35;;;2.03;;
47413;SDS011;33163;0.000;0.000;2023-07-30T06:27:17;8.10;;;2.30;;
47413;SDS011;33163;0.000;0.000;2023-07-30T06:29:44;9.63;;;2.30;;
47413;SDS011;33163;0.000;0.000;2023-07-30T06:32:12;6.90;;;2.00;;
47413;SDS011;33163;0.000;0.000;2023-07-30T06:34:39;7.68;;;1.90;;
47413;SDS011;33163;0.000;0.000;2023-07-30T06:37:06;11.05;;;2.45;;
47413;SDS011;33163;0.000;0.000;2023-07-30T06:39:32;8.23;;;1.83;;
47413;SDS011;33163;0.000;0.000;2023-07-30T06:41:59;11.05;;;1.80;;
47413;SDS011;33163;0.000;0.000;2023-07-30T06:44:26;9.80;;;2.25;;
47413;SDS011;33163;0.000;0.000;2023-07-30T06:46:52;9.43;;;2.22;;
47413;SDS011;33163;0.000;0.000;2023-07-30T06:49:21;7.45;;;2.28;;
47413;SDS011;33163;0.000;0.000;2023-07-30T06:51:48;5.20;;;2.10;;
47413;SDS011;33163;0.000;0.000;2023-07-30T06:54:14;6.80;;;1.70;;
47413;SDS011;33163;0.000;0.000;2023-07-30T06:56:41;6.95;;;1.85;;
47413;SDS011;33163;0.000;0.000;2023-07-30T06:59:08;10.98;;;2.63;;
47413;SDS011;33163;0.000;0.000;2023-07-30T07:01:35;5.80;;;2.10;;
47413;SDS011;33163;0.000;0.000;2023-07-30T07:04:01;6.10;;;1.92;;
47413;SDS011;33163;0.000;0.000;2023-07-30T07:06:29;7.22;;;2.28;;
47413;SDS011;33163;0.000;0.000;2023-07-30T07:08:56;7.30;;;2.40;;
47413;SDS011;33163;0.000;0.000;2023-07-30T07:11:23;10.48;;;2.53;;
47413;SDS011;33163;0.000;0.000;2023-07-30T07:13:50;9.00;;;2.58;;
47413;SDS011;33163;0.000;0.000;2023-07-30T07:16:16;9.35;;;2.40;;
47413;SDS011;33163;0.000;0.000;2023-07-30T07:18:43;7.88;;;1.90;;
47413;SDS011;33163;0.000;0.000;2023-07-30T07:21:10;7.45;;;2.00;;
47413;SDS011;33163;0.000;0.000;2023-07-30T07:23:38;7.07;;;1.80;;
47413;SDS011;33163;0.000;0.000;2023-07-30T07:26:05;3.85;;;1.92;;
47413;SDS011;33163;0.000;0.000;2023-07-30T07:28:32;10.18;;;2.28;;
47413;SDS011;33163;0.000;0.000;2023-07-30T07:30:58;9.38;;;2.03;;
47413;SDS011;33163;0.000;0.000;2023-07-30T07:33:25;6.07;;;1.40;;
47413;SDS011;33163;0.000;0.000;2023-07-30T07:35:53;9.63;;;2.30;;
47413;SDS011;33163;0.000;0.000;2023-07-30T07:38:28;6.97;;;2.00;;
47413;SDS011;33163;0.000;0.000;2023-07-30T07:40:57;5.72;;;1.95;;
47413;SDS011;33163;0.000;0.000;2023-07-30T07:43:23;8.13;;;2.08;;
47413;SDS011;33163;0.000;0.000;2023-07-30T07:45:50;9.13;;;2.22;;
47413;SDS011;33163;0.000;0.000;2023-07-30T07:48:17;10.70;;;3.00;;
47413;SDS011;33163;0.000;0.000;2023-07-30T07:50:44;6.20;;;2.15;;
47413;SDS011;33163;0.000;0.000;2023-07-30T07:53:11;7.00;;;1.83;;
47413;SDS011;33163;0.000;0.000;2023-07-30T07:55:38;6.57;;;1.85;;
47413;SDS011;33163;0.000;0.000;2023-07-30T07:58:06;7.57;;;1.80;;
47413;SDS011;33163;0.000;0.000;2023-07-30T08:00:32;8.77;;;2.45;;
47413;SDS011;33163;0.000;0.000;2023-07-30T08:02:59;11.35;;;2.55;;
47413;SDS011;33163;0.000;0.000;2023-07-30T08:05:26;5.82;;;1.95;;
47413;SDS011;33163;0.000;0.000;2023-07-30T08:07:53;8.18;;;2.13;;
47413;SDS011;33163;0.000;0.000;2023-07-30T08:10:19;5.63;;;1.55;;
47413;SDS011;33163;0.000;0.000;2023-07-30T08:12:46;10.40;;;2.00;;
47413;SDS011;33163;0.000;0.000;2023-07-30T08:15:15;9.57;;;2.55;;
47413;SDS011;33163;0.000;0.000;2023-07-30T08:17:42;11.05;;;2.20;;
47413;SDS011;33163;0.000;0.000;2023-07-30T08:20:09;9.32;;;2.78;;
47413;SDS011;33163;0.000;0.000;2023-07-30T08:22:36;4.85;;;1.52;;
47413;SDS011;33163;0.000;0.000;2023-07-30T08:25:03;6.75;;;1.77;;
47413;SDS011;33163;0.000;0.000;2023-07-30T08:27:30;7.63;;;2.25;;
47413;SDS011;33163;0.000;0.000;2023-07-30T08:29:57;5.00;;;1.60;;
47413;SDS011;33163;0.000;0.000;2023-07-30T08:32:25;7.22;;;1.88;;
47413;SDS011;33163;0.000;0.000;2023-07-30T08:34:52;7.60;;;1.83;;
47413;SDS011;33163;0.000;0.000;2023-07-30T08:37:19;9.52;;;2.00;;
47413;SDS011;33163;0.000;0.000;2023-07-30T08:39:45;4.03;;;1.60;;
47413;SDS011;33163;0.000;0.000;2023-07-30T08:42:12;12.88;;;3.00;;
47413;SDS011;33163;0.000;0.000;2023-07-30T08:44:39;8.32;;;2.13;;
47413;SDS011;33163;0.000;0.000;2023-07-30T08:47:06;3.63;;;1.67;;
47413;SDS011;33163;0.000;0.000;2023-07-30T08:49:35;11.50;;;2.38;;
47413;SDS011;33163;0.000;0.000;2023-07-30T08:52:02;9.82;;;2.53;;
47413;SDS011;33163;0.000;0.000;2023-07-30T08:54:30;8.23;;;1.70;;
47413;SDS011;33163;0.000;0.000;2023-07-30T08:56:57;9.00;;;2.00;;
47413;SDS011;33163;0.000;0.000;2023-07-30T08:59:24;5.78;;;1.60;;
47413;SDS011;33163;0.000;0.000;2023-07-30T09:01:57;8.57;;;1.83;;
47413;SDS011;33163;0.000;0.000;2023-07-30T09:04:24;7.53;;;1.80;;
47413;SDS011;33163;0.000;0.000;2023-07-30T09:06:52;9.15;;;2.42;;
47413;SDS011;33163;0.000;0.000;2023-07-30T09:09:19;7.68;;;1.80;;
47413;SDS011;33163;0.000;0.000;2023-07-30T09:11:50;5.43;;;1.98;;
47413;SDS011;33163;0.000;0.000;2023-07-30T09:14:19;7.25;;;2.03;;
47413;SDS011;33163;0.000;0.000;2023-07-30T09:16:46;6.85;;;1.63;;
47413;SDS011;33163;0.000;0.000;2023-07-30T09:19:15;7.78;;;1.70;;
47413;SDS011;33163;0.000;0.000;2023-07-30T09:21:43;5.07;;;1.58;;
47413;SDS011;33163;0.000;0.000;2023-07-30T09:24:11;11.07;;;2.28;;
47413;SDS011;33163;0.000;0.000;2023-07-30T09:26:41;8.75;;;2.50;;
47413;SDS011;33163;0.000;0.000;2023-07-30T09:29:09;7.03;;;1.67;;
47413;SDS011;33163;0.000;0.000;2023-07-30T09:31:45;6.13;;;1.67;;
47413;SDS011;33163;0.000;0.000;2023-07-30T09:34:15;5.63;;;1.95;;
47413;SDS011;33163;0.000;0.000;2023-07-30T09:36:43;5.22;;;1.63;;
47413;SDS011;33163;0.000;0.000;2023-07-30T09:39:15;5.20;;;1.52;;
47413;SDS011;33163;0.000;0.000;2023-07-30T09:41:43;6.95;;;1.80;;
47413;SDS011;33163;0.000;0.000;2023-07-30T09:44:10;3.95;;;1.50;;
47413;SDS011;33163;0.000;0.000;2023-07-30T09:46:41;3.97;;;1.30;;
47413;SDS011;33163;0.000;0.000;2023-07-30T09:49:08;5.80;;;1.90;;
47413;SDS011;33163;0.000;0.000;2023-07-30T09:51:36;3.10;;;1.48;;
47413;SDS011;33163;0.000;0.000;2023-07-30T09:54:03;5.75;;;2.10;;
47413;SDS011;33163;0.000;0.000;2023-07-30T09:56:33;7.07;;;2.45;;
47413;SDS011;33163;0.000;0.000;2023-07-30T09:58:59;4.60;;;1.58;;
47413;SDS011;33163;0.000;0.000;2023-07-30T10:01:26;6.55;;;1.92;;
47413;SDS011;33163;0.000;0.000;2023-07-30T10:03:56;6.05;;;1.42;;
47413;SDS011;33163;0.000;0.000;2023-07-30T10:06:23;5.63;;;1.55;;
47413;SDS011;33163;0.000;0.000;2023-07-30T10:08:53;4.43;;;1.25;;
47413;SDS011;33163;0.000;0.000;2023-07-30T10:11:22;5.85;;;2.10;;
47413;SDS011;33163;0.000;0.000;2023-07-30T10:13:52;8.88;;;1.80;;
47413;SDS011;33163;0.000;0.000;2023-07-30T10:16:24;5.13;;;1.70;;
47413;SDS011;33163;0.000;0.000;2023-07-30T10:18:53;4.32;;;1.92;;
47413;SDS011;33163;0.000;0.000;2023-07-30T10:21:23;6.82;;;2.22;;
47413;SDS011;33163;0.000;0.000;2023-07-30T10:23:57;5.03;;;1.40;;
47413;SDS011;33163;0.000;0.000;2023-07-30T10:26:26;6.32;;;1.48;;
47413;SDS011;33163;0.000;0.000;2023-07-30T10:31:47;5.80;;;1.40;;
47413;SDS011;33163;0.000;0.000;2023-07-30T10:34:20;7.55;;;1.75;;
47413;SDS011;33163;0.000;0.000;2023-07-30T10:36:47;6.40;;;1.48;;
47413;SDS011;33163;0.000;0.000;2023-07-30T10:39:16;4.45;;;1.50;;
47413;SDS011;33163;0.000;0.000;2023-07-30T10:41:44;3.40;;;1.38;;
47413;SDS011;33163;0.000;0.000;2023-07-30T10:44:19;6.15;;;1.60;;
47413;SDS011;33163;0.000;0.000;2023-07-30T10:46:50;5.82;;;1.48;;
47413;SDS011;33163;0.000;0.000;2023-07-30T10:49:17;4.28;;;1.42;;
47413;SDS011;33163;0.000;0.000;2023-07-30T10:51:44;5.43;;;2.00;;
47413;SDS011;33163;0.000;0.000;2023-07-30T10:54:11;6.78;;;1.75;;
47413;SDS011;33163;0.000;0.000;2023-07-30T10:56:37;6.90;;;1.58;;
47413;SDS011;33163;0.000;0.000;2023-07-30T10:59:05;5.70;;;1.65;;
47413;SDS011;33163;0.000;0.000;2023-07-30T11:01:37;5.22;;;1.67;;
47413;SDS011;33163;0.000;0.000;2023-07-30T11:04:05;7.13;;;2.00;;
47413;SDS011;33163;0.000;0.000;2023-07-30T11:06:33;4.25;;;1.52;;
47413;SDS011;33163;0.000;0.000;2023-07-30T11:09:00;4.72;;;1.48;;
47413;SDS011;33163;0.000;0.000;2023-07-30T11:11:27;6.38;;;1.85;;
47413;SDS011;33163;0.000;0.000;2023-07-30T11:13:53;5.78;;;1.70;;
47413;SDS011;33163;0.000;0.000;2023-07-30T11:16:20;6.45;;;1.35;;
47413;SDS011;33163;0.000;0.000;2023-07-30T11:18:48;4.32;;;1.27;;
47413;SDS011;33163;0.000;0.000;2023-07-30T11:21:16;5.07;;;1.52;;
47413;SDS011;33163;0.000;0.000;2023-07-30T11:23:44;5.40;;;1.67;;
47413;SDS011;33163;0.000;0.000;2023-07-30T11:26:13;5.60;;;2.08;;
47413;SDS011;33163;0.000;0.000;2023-07-30T11:28:42;7.80;;;1.63;;
47413;SDS011;33163;0.000;0.000;2023-07-30T11:31:09;7.15;;;1.80;;
47413;SDS011;33163;0.000;0.000;2023-07-30T11:33:38;6.63;;;1.48;;
47413;SDS011;33163;0.000;0.000;2023-07-30T11:36:08;9.20;;;1.85;;
47413;SDS011;33163;0.000;0.000;2023-07-30T11:38:36;9.15;;;1.95;;
47413;SDS011;33163;0.000;0.000;2023-07-30T11:41:05;4.88;;;1.65;;
47413;SDS011;33163;0.000;0.000;2023-07-30T11:43:35;3.88;;;1.20;;
47413;SDS011;33163;0.000;0.000;2023-07-30T11:46:10;7.15;;;1.88;;
47413;SDS011;33163;0.000;0.000;2023-07-30T11:48:38;6.68;;;1.40;;
47413;SDS011;33163;0.000;0.000;2023-07-30T11:51:17;5.32;;;1.90;;
47413;SDS011;33163;0.000;0.000;2023-07-30T11:53:50;5.40;;;1.92;;
47413;SDS011;33163;0.000;0.000;2023-07-30T11:56:18;6.18;;;1.60;;
47413;SDS011;33163;0.000;0.000;2023-07-30T11:58:46;6.68;;;1.58;;
47413;SDS011;33163;0.000;0.000;2023-07-30T12:01:13;5.82;;;1.55;;
47413;SDS011;33163;0.000;0.000;2023-07-30T12:03:40;3.30;;;1.25;;
47413;SDS011;33163;0.000;0.000;2023-07-30T12:06:09;4.50;;;1.30;;
47413;SDS011;33163;0.000;0.000;2023-07-30T12:08:36;3.22;;;1.17;;
47413;SDS011;33163;0.000;0.000;2023-07-30T12:11:04;8.40;;;2.05;;
47413;SDS011;33163;0.000;0.000;2023-07-30T12:13:32;2.67;;;1.50;;
47413;SDS011;33163;0.000;0.000;2023-07-30T12:15:59;4.40;;;1.50;;
47413;SDS011;33163;0.000;0.000;2023-07-30T12:18:26;8.75;;;1.88;;
47413;SDS011;33163;0.000;0.000;2023-07-30T12:20:54;4.95;;;1.50;;
47413;SDS011;33163;0.000;0.000;2023-07-30T12:23:22;3.70;;;1.23;;
47413;SDS011;33163;0.000;0.000;2023-07-30T12:25:49;5.07;;;1.38;;
47413;SDS011;33163;0.000;0.000;2023-07-30T12:28:17;6.07;;;1.40;;
47413;SDS011;33163;0.000;0.000;2023-07-30T12:30:43;5.90;;;1.75;;
47413;SDS011;33163;0.000;0.000;2023-07-30T12:33:10;5.88;;;1.52;;
47413;SDS011;33163;0.000;0.000;2023-07-30T12:35:37;7.50;;;1.25;;
47413;SDS011;33163;0.000;0.000;2023-07-30T12:38:03;9.43;;;1.98;;
47413;SDS011;33163;0.000;0.000;2023-07-30T12:40:32;5.40;;;1.55;;
47413;SDS011;33163;0.000;0.000;2023-07-30T12:43:00;3.13;;;1.63;;
47413;SDS011;33163;0.000;0.000;2023-07-30T12:45:28;4.85;;;1.40;;
47413;SDS011;33163;0.000;0.000;2023-07-30T12:47:54;5.18;;;1.52;;
47413;SDS011;33163;0.000;0.000;2023-07-30T12:50:21;4.47;;;1.55;;
47413;SDS011;33163;0.000;0.000;2023-07-30T12:52:48;4.50;;;1.17;;
47413;SDS011;33163;0.000;0.000;2023-07-30T12:55:15;4.93;;;1.67;;
47413;SDS011;33163;0.000;0.000;2023-07-30T12:57:43;8.50;;;1.52;;
47413;SDS011;33163;0.000;0.000;2023-07-30T13:00:10;4.57;;;1.30;;
47413;SDS011;33163;0.000;0.000;2023-07-30T13:02:38;3.45;;;1.10;;
47413;SDS011;33163;0.000;0.000;2023-07-30T13:05:04;4.00;;;1.40;;
47413;SDS011;33163;0.000;0.000;2023-07-30T13:07:31;4.78;;;1.42;;
47413;SDS011;33163;0.000;0.000;2023-07-30T13:10:02;3.63;;;1.38;;
47413;SDS011;33163;0.000;0.000;2023-07-30T13:12:33;3.78;;;1.13;;
47413;SDS011;33163;0.000;0.000;2023-07-30T13:15:01;6.75;;;1.40;;
47413;SDS011;33163;0.000;0.000;2023-07-30T13:17:28;5.13;;;1.17;;
47413;SDS011;33163;0.000;0.000;2023-07-30T13:19:56;5.55;;;1.52;;
47413;SDS011;33163;0.000;0.000;2023-07-30T13:22:23;3.88;;;1.20;;
47413;SDS011;33163;0.000;0.000;2023-07-30T13:24:50;5.85;;;1.83;;
47413;SDS011;33163;0.000;0.000;2023-07-30T13:27:16;4.15;;;1.23;;
47413;SDS011;33163;0.000;0.000;2023-07-30T13:29:44;6.05;;;1.95;;
47413;SDS011;33163;0.000;0.000;2023-07-30T13:32:13;6.63;;;1.60;;
47413;SDS011;33163;0.000;0.000;2023-07-30T13:34:39;6.95;;;1.40;;
47413;SDS011;33163;0.000;0.000;2023-07-30T13:37:06;8.85;;;1.20;;
47413;SDS011;33163;0.000;0.000;2023-07-30T13:39:33;4.90;;;1.27;;
47413;SDS011;33163;0.000;0.000;2023-07-30T13:42:00;4.10;;;1.33;;
47413;SDS011;33163;0.000;0.000;2023-07-30T13:44:27;7.07;;;1.52;;
47413;SDS011;33163;0.000;0.000;2023-07-30T13:46:53;4.65;;;1.10;;
47413;SDS011;33163;0.000;0.000;2023-07-30T13:49:21;3.85;;;1.20;;
47413;SDS011;33163;0.000;0.000;2023-07-30T13:51:48;5.60;;;1.15;;
47413;SDS011;33163;0.000;0.000;2023-07-30T13:54:15;6.32;;;1.90;;
47413;SDS011;33163;0.000;0.000;2023-07-30T13:56:42;6.32;;;1.33;;
47413;SDS011;33163;0.000;0.000;2023-07-30T13:59:08;6.22;;;1.50;;
47413;SDS011;33163;0.000;0.000;2023-07-30T14:01:35;12.65;;;1.65;;
47413;SDS011;33163;0.000;0.000;2023-07-30T14:04:02;4.45;;;1.55;;
47413;SDS011;33163;0.000;0.000;2023-07-30T14:06:30;6.47;;;1.70;;
47413;SDS011;33163;0.000;0.000;2023-07-30T14:08:57;7.30;;;1.60;;
47413;SDS011;33163;0.000;0.000;2023-07-30T14:11:25;5.32;;;1.38;;
47413;SDS011;33163;0.000;0.000;2023-07-30T14:13:52;12.32;;;2.83;;
47413;SDS011;33163;0.000;0.000;2023-07-30T14:16:19;6.13;;;1.92;;
47413;SDS011;33163;0.000;0.000;2023-07-30T14:18:46;14.85;;;1.90;;
47413;SDS011;33163;0.000;0.000;2023-07-30T14:21:13;13.45;;;2.13;;
47413;SDS011;33163;0.000;0.000;2023-07-30T14:23:41;10.00;;;1.75;;
47413;SDS011;33163;0.000;0.000;2023-07-30T14:26:07;12.70;;;2.42;;
47413;SDS011;33163;0.000;0.000;2023-07-30T14:28:34;4.57;;;1.52;;
47413;SDS011;33163;0.000;0.000;2023-07-30T14:31:01;9.68;;;2.10;;
47413;SDS011;33163;0.000;0.000;2023-07-30T14:33:28;8.35;;;2.00;;
47413;SDS011;33163;0.000;0.000;2023-07-30T14:35:54;7.50;;;2.10;;
47413;SDS011;33163;0.000;0.000;2023-07-30T14:38:21;9.00;;;1.65;;
47413;SDS011;33163;0.000;0.000;2023-07-30T14:40:49;11.85;;;2.60;;
47413;SDS011;33163;0.000;0.000;2023-07-30T14:43:16;5.68;;;1.65;;
47413;SDS011;33163;0.000;0.000;2023-07-30T14:45:43;16.80;;;2.13;;
47413;SDS011;33163;0.000;0.000;2023-07-30T14:48:09;6.53;;;1.52;;
47413;SDS011;33163;0.000;0.000;2023-07-30T14:50:36;7.78;;;2.38;;
47413;SDS011;33163;0.000;0.000;2023-07-30T14:53:03;7.25;;;2.10;;
47413;SDS011;33163;0.000;0.000;2023-07-30T14:55:30;12.57;;;2.15;;
47413;SDS011;33163;0.000;0.000;2023-07-30T14:57:58;7.07;;;2.10;;
47413;SDS011;33163;0.000;0.000;2023-07-30T15:00:25;10.02;;;2.63;;
47413;SDS011;33163;0.000;0.000;2023-07-30T15:02:52;10.88;;;2.03;;